Main page
METAR-TAF:

Airports :

Mexicali, Mexico

General Rodolfo Sánchez Taboada International Airport

latitude: 32-37-50N, longitude: 115-14-30W, elevation: 22 m

Current weather observation

The report was made 22 minutes ago, at 06:44 UTC
Wind 3 kt from the West/Northwest
Temperature 24°C
Humidity 24%
Pressure 1014 hPa
Visibility: 16.1 km
Clear sky

METAR: MMML 250644Z 30003KT 10SM SKC 24/02 A2993

Time: 02:06 (07:06 UTC)

Forecast

The report was made 2 hours and 59 minutes ago, at 04:07 UTC
Forecast valid from 25 at 06 UTC to 26 at 06 UTC
Wind 5 kt from the West
Visibility: 10 km
Clear sky
From 25 at 1700 UTC
Wind 12 kt from the North/Northwest
Visibility: 10 km
Clear sky
From 26 at 0200 UTC
Wind 5 kt from the West/Northwest
Visibility: 10 km
Clear sky

TAF: MMML 250407Z 2506/2606 26005KT P6SM SKC FM251700 33012KT P6SM SKC FM260200 30005KT P6SM SKC

METAR-TAF

Weather observations and forecasts of more than 4000 airports (METAR and TAF reports).

The available stations are represented by yellow and red dots on the map.

Hover mouse over dot to see the name of the station.

Then click to see weather observations and forecasts.

To change the map : click on the green buttons with a black cross to zoom in, on the green button with a dash to zoom out, or on the green arrows for adjacent maps.


METAR-TAF: